Time;durP1;ratioP1;P1;durP2;ratioP2;P2;SDS_P1;SDS_P2;PMS_P1;PMS_P2;Temp;Humidity;BMP_temperature;BMP_pressure;BME280_temperature;BME280_humidity;BME280_pressure;Samples;Min_cycle;Max_cycle;Signal;HPM_P1;HPM_P2
2021/05/06 00:05:04;;;;;;;5.20;2.88;;;6.00;82.20;;;;;;2090618;28;20048;-69
2021/05/06 00:29:55;;;;;;;5.72;3.00;;;6.00;80.80;;;;;;2091391;28;20104;-69
2021/05/06 00:32:12;;;;;;;5.55;3.65;;;5.90;82.20;;;;;;2091400;28;20031;-68
2021/05/06 00:33:12;;;;;;;5.60;3.30;;;5.90;82.20;;;;;;2091273;28;20086;-69
2021/05/06 00:34:13;;;;;;;5.82;3.38;;;5.90;82.60;;;;;;2091543;28;20040;-69
2021/05/06 00:35:13;;;;;;;5.43;3.38;;;5.90;82.70;;;;;;2090651;28;20056;-69
2021/05/06 00:36:14;;;;;;;5.90;3.47;;;5.80;82.30;;;;;;2090661;28;20135;-68
2021/05/06 00:37:15;;;;;;;5.13;3.40;;;5.80;82.30;;;;;;2091041;28;20029;-69
2021/05/06 00:38:23;;;;;;;6.05;3.92;;;5.80;82.10;;;;;;2082120;28;20113;-69
2021/05/06 00:39:29;;;;;;;4.78;3.40;;;5.80;81.90;;;;;;2083367;28;20048;-69
2021/05/06 00:40:55;;;;;;;4.28;3.40;;;5.80;82.00;;;;;;2091049;28;20021;-68
2021/05/06 00:42:10;;;;;;;5.03;3.42;;;5.80;82.30;;;;;;2091128;28;20628;-69
2021/05/06 00:43:30;;;;;;;5.60;3.53;;;5.80;82.70;;;;;;2091068;28;20487;-68
2021/05/06 00:45:09;;;;;;;4.72;3.58;;;5.80;82.50;;;;;;2091128;28;20482;-69
2021/05/06 00:54:18;;;;;;;5.18;3.90;;;5.70;82.80;;;;;;2089082;28;20021;-68
2021/05/06 01:01:56;;;;;;;6.55;4.20;;;5.70;83.90;;;;;;2089008;28;20033;-67
2021/05/06 01:05:32;;;;;;;5.95;4.55;;;5.70;83.90;;;;;;2089303;28;20017;-69
2021/05/06 01:06:38;;;;;;;7.90;4.30;;;5.70;83.90;;;;;;2088715;28;20071;-69
2021/05/06 01:08:02;;;;;;;5.97;4.30;;;5.70;84.00;;;;;;2088932;28;20025;-68
2021/05/06 01:09:08;;;;;;;8.20;4.30;;;5.60;84.10;;;;;;2080601;28;20641;-69
2021/05/06 01:12:14;;;;;;;5.63;4.32;;;5.60;84.20;;;;;;2089123;28;20369;-69
2021/05/06 01:12:50;;;;;;;;;;;5.60;84.40;;;;;;2084474;28;20038;-66
2021/05/06 01:13:53;;;;;;;6.00;4.70;;;5.60;84.40;;;;;;2088711;28;19904;-68
2021/05/06 01:14:54;;;;;;;7.38;4.93;;;5.60;84.80;;;;;;2088897;28;20504;-69
2021/05/06 01:15:55;;;;;;;5.60;4.43;;;5.60;84.80;;;;;;2089455;28;20033;-68
2021/05/06 01:16:56;;;;;;;5.95;4.60;;;5.60;84.80;;;;;;2088458;28;20032;-69
2021/05/06 01:17:57;;;;;;;6.03;4.53;;;5.60;85.20;;;;;;2080507;28;20060;-69
2021/05/06 01:18:58;;;;;;;6.05;4.60;;;5.60;85.30;;;;;;2088981;28;20048;-68
2021/05/06 01:19:59;;;;;;;4.93;4.43;;;5.60;85.00;;;;;;2089508;28;20028;-69
2021/05/06 01:21:01;;;;;;;8.27;5.00;;;5.70;84.80;;;;;;2089576;28;20100;-69
2021/05/06 01:22:04;;;;;;;5.30;4.50;;;5.60;85.00;;;;;;2089497;28;20041;-69
2021/05/06 01:23:06;;;;;;;6.93;4.55;;;5.60;85.00;;;;;;2088785;28;20024;-69
2021/05/06 01:24:07;;;;;;;8.52;4.65;;;5.60;85.50;;;;;;2080551;28;20120;-69
2021/05/06 01:25:09;;;;;;;5.85;4.40;;;5.60;85.40;;;;;;2088939;28;20025;-69
2021/05/06 01:26:17;;;;;;;5.65;4.53;;;5.60;85.70;;;;;;2088864;28;20041;-69
2021/05/06 01:27:24;;;;;;;6.28;4.55;;;5.60;85.60;;;;;;2093113;28;20321;-69
2021/05/06 01:28:28;;;;;;;5.63;4.70;;;5.60;85.90;;;;;;2088452;28;20477;-69
2021/05/06 01:29:33;;;;;;;5.38;4.43;;;5.60;85.40;;;;;;2088871;28;20072;-69
2021/05/06 01:30:39;;;;;;;6.85;4.60;;;5.70;85.50;;;;;;2088863;28;20044;-69
2021/05/06 01:31:44;;;;;;;5.95;4.47;;;5.70;85.60;;;;;;2081422;28;20057;-69
2021/05/06 01:32:50;;;;;;;6.28;4.40;;;5.70;85.20;;;;;;2088977;28;20021;-69
2021/05/06 01:34:34;;;;;;;5.88;4.50;;;5.70;85.40;;;;;;2088555;28;20060;-69
2021/05/06 01:35:54;;;;;;;5.95;4.32;;;5.70;85.10;;;;;;2088733;28;20041;-68
2021/05/06 01:36:48;;;;;;;6.95;4.45;;;5.70;84.90;;;;;;2088785;28;20523;-68
2021/05/06 01:39:08;;;;;;;5.68;4.00;;;5.70;85.60;;;;;;2089468;28;20025;-68
2021/05/06 01:42:50;;;;;;;5.13;4.13;;;5.60;85.60;;;;;;2089017;28;20400;-68
2021/05/06 01:43:59;;;;;;;5.72;4.13;;;5.70;85.90;;;;;;2088534;28;20112;-67
2021/05/06 01:47:23;;;;;;;6.60;4.18;;;5.70;86.10;;;;;;2088421;28;20032;-69
2021/05/06 01:49:41;;;;;;;6.00;4.50;;;5.70;86.20;;;;;;2088831;28;20031;-69
2021/05/06 01:58:41;;;;;;;5.32;4.30;;;5.70;86.20;;;;;;2086750;28;20036;-68
2021/05/06 02:00:55;;;;;;;4.80;4.05;;;5.70;86.70;;;;;;2088206;28;20020;-68
2021/05/06 02:01:58;;;;;;;5.57;3.97;;;5.70;86.90;;;;;;2088612;28;20017;-69
2021/05/06 02:03:00;;;;;;;4.43;3.55;;;5.60;87.10;;;;;;2081732;28;20017;-68
2021/05/06 02:04:05;;;;;;;5.65;4.10;;;5.60;87.40;;;;;;2094782;28;20033;-68
2021/05/06 02:05:06;;;;;;;4.32;3.78;;;5.60;87.80;;;;;;2089190;28;20104;-70
2021/05/06 02:06:07;;;;;;;4.75;3.80;;;5.50;87.70;;;;;;2088992;28;20029;-68
2021/05/06 02:07:08;;;;;;;5.78;4.20;;;5.50;87.70;;;;;;2088950;28;20551;-67
2021/05/06 02:08:19;;;;;;;;;;;5.50;87.90;;;;;;2084644;28;20021;-68
2021/05/06 02:09:23;;;;;;;4.95;4.30;;;5.40;88.20;;;;;;2087916;28;19908;-68
2021/05/06 02:10:26;;;;;;;4.75;4.07;;;5.50;88.40;;;;;;2084990;28;20395;-67
2021/05/06 02:11:28;;;;;;;6.55;4.38;;;5.50;88.40;;;;;;2080265;28;20017;-68
2021/05/06 02:12:41;;;;;;;4.63;3.80;;;5.50;88.60;;;;;;2082128;28;20460;-71
2021/05/06 02:13:42;;;;;;;4.43;3.83;;;5.40;88.50;;;;;;2089019;28;20476;-68
2021/05/06 02:16:22;;;;;;;4.88;4.10;;;5.40;89.10;;;;;;2067503;28;20065;-72
2021/05/06 02:17:23;;;;;;;5.43;4.25;;;5.40;89.30;;;;;;2084883;28;20029;-69
2021/05/06 02:18:25;;;;;;;4.32;3.88;;;5.40;89.50;;;;;;2088175;28;20021;-68
2021/05/06 02:19:38;;;;;;;4.20;3.80;;;5.40;89.70;;;;;;2088457;28;20381;-68
2021/05/06 02:20:40;;;;;;;4.85;3.92;;;5.30;89.80;;;;;;2088972;28;20127;-69
2021/05/06 02:21:42;;;;;;;3.72;3.38;;;5.30;90.10;;;;;;2088966;28;20419;-69
2021/05/06 02:22:45;;;;;;;5.43;4.00;;;5.30;90.20;;;;;;2089001;28;20033;-69
2021/05/06 02:23:46;;;;;;;5.10;4.20;;;5.30;90.20;;;;;;2088890;28;20112;-69
2021/05/06 02:24:47;;;;;;;3.83;3.50;;;5.30;90.20;;;;;;2088347;28;20029;-68
2021/05/06 02:25:48;;;;;;;4.13;3.70;;;5.30;90.30;;;;;;2080028;28;20033;-68
2021/05/06 02:26:48;;;;;;;5.20;3.95;;;5.30;90.40;;;;;;2088073;28;20082;-68
2021/05/06 02:27:49;;;;;;;5.10;3.67;;;5.30;90.50;;;;;;2087261;28;20047;-68
2021/05/06 02:28:50;;;;;;;4.15;3.60;;;5.30;90.60;;;;;;2080738;28;20030;-70
2021/05/06 02:29:51;;;;;;;4.80;3.80;;;5.20;90.60;;;;;;2089029;28;20023;-69
2021/05/06 02:30:51;;;;;;;5.10;3.92;;;5.30;90.60;;;;;;2089022;28;20039;-69
2021/05/06 02:31:52;;;;;;;6.13;4.10;;;5.20;90.60;;;;;;2089058;28;20013;-68
2021/05/06 02:32:52;;;;;;;5.10;4.10;;;5.30;90.70;;;;;;2088920;28;20021;-68
2021/05/06 02:33:53;;;;;;;4.28;3.88;;;5.30;90.70;;;;;;2089096;28;20486;-69
2021/05/06 02:34:55;;;;;;;5.75;3.72;;;5.30;90.70;;;;;;2088804;28;20396;-68
2021/05/06 02:35:56;;;;;;;4.30;3.70;;;5.30;90.80;;;;;;2088759;28;20029;-69
2021/05/06 02:36:56;;;;;;;6.32;4.18;;;5.30;90.70;;;;;;2088704;28;20020;-69
2021/05/06 02:37:57;;;;;;;5.97;4.47;;;5.40;90.60;;;;;;2088916;28;20454;-69
2021/05/06 02:38:58;;;;;;;6.55;4.20;;;5.40;90.60;;;;;;2089002;28;20052;-69
2021/05/06 02:39:59;;;;;;;6.47;4.57;;;5.50;90.50;;;;;;2088881;28;20049;-68
2021/05/06 02:40:59;;;;;;;5.53;4.47;;;5.50;90.50;;;;;;2088910;28;20416;-69
2021/05/06 02:42:00;;;;;;;8.73;5.40;;;5.50;90.50;;;;;;2088817;28;20056;-69
2021/05/06 02:43:01;;;;;;;7.15;4.63;;;5.60;90.30;;;;;;2090286;28;20035;-69
2021/05/06 02:44:01;;;;;;;5.38;4.40;;;5.60;90.10;;;;;;2095377;28;20025;-69
2021/05/06 02:45:03;;;;;;;5.00;4.20;;;5.60;90.10;;;;;;2088096;28;20078;-69
2021/05/06 02:46:03;;;;;;;6.07;4.80;;;5.70;90.00;;;;;;2088214;28;20076;-69
2021/05/06 02:47:04;;;;;;;5.95;4.53;;;5.70;89.80;;;;;;2088527;28;20032;-68
2021/05/06 02:48:05;;;;;;;5.28;4.43;;;5.70;89.70;;;;;;2088806;28;20064;-69
2021/05/06 02:49:05;;;;;;;7.63;4.90;;;5.70;89.20;;;;;;2088918;28;20166;-68
2021/05/06 02:50:12;;;;;;;5.43;4.47;;;5.70;88.80;;;;;;2088813;28;20442;-68
2021/05/06 02:51:13;;;;;;;5.03;4.05;;;5.70;88.80;;;;;;2088940;28;20111;-69
2021/05/06 02:52:36;;;;;;;5.57;4.50;;;5.70;88.80;;;;;;2088820;28;20025;-68
2021/05/06 02:53:44;;;;;;;7.03;4.15;;;5.70;88.80;;;;;;2088113;28;20029;-68
2021/05/06 02:54:50;;;;;;;6.38;4.50;;;5.60;89.00;;;;;;2088255;28;20458;-68
2021/05/06 02:56:01;;;;;;;5.68;4.18;;;5.60;89.20;;;;;;2088770;28;20033;-68
2021/05/06 02:57:19;;;;;;;5.60;4.32;;;5.50;89.30;;;;;;2088519;28;20456;-69
2021/05/06 03:03:44;;;;;;;7.07;5.00;;;5.40;90.40;;;;;;2088617;28;20039;-69
2021/05/06 03:04:46;;;;;;;9.35;5.40;;;5.30;90.40;;;;;;2088697;28;20025;-69
2021/05/06 03:05:52;;;;;;;6.97;4.97;;;5.40;90.50;;;;;;2088732;28;20074;-69
2021/05/06 03:06:57;;;;;;;5.63;4.70;;;5.30;90.60;;;;;;2088443;28;20094;-69
2021/05/06 03:09:20;;;;;;;7.72;5.30;;;5.30;90.50;;;;;;2088799;28;20029;-69
2021/05/06 03:10:37;;;;;;;6.68;5.40;;;5.30;90.60;;;;;;2088171;28;20075;-69
2021/05/06 03:11:45;;;;;;;7.93;5.32;;;5.30;90.50;;;;;;2088086;28;20409;-69
2021/05/06 03:14:26;;;;;;;6.72;5.10;;;5.30;90.40;;;;;;2087641;28;20115;-69
2021/05/06 03:22:42;;;;;;;8.20;5.70;;;5.30;90.60;;;;;;2083344;28;20040;-68
2021/05/06 03:23:42;;;;;;;6.57;5.18;;;5.30;90.70;;;;;;2087750;28;20120;-68
2021/05/06 03:24:46;;;;;;;8.48;5.80;;;5.30;90.70;;;;;;2088136;28;20025;-69
2021/05/06 03:25:47;;;;;;;7.78;5.80;;;5.30;90.60;;;;;;2088395;28;20028;-68
2021/05/06 03:26:48;;;;;;;7.38;5.90;;;5.30;90.60;;;;;;2088914;28;20542;-68
2021/05/06 03:28:09;;;;;;;7.32;5.60;;;5.30;90.50;;;;;;2087217;28;20025;-69
2021/05/06 03:29:18;;;;;;;7.93;5.97;;;5.30;90.30;;;;;;2083533;28;20048;-72
2021/05/06 03:32:57;;;;;;;9.27;6.10;;;5.30;90.20;;;;;;2089086;28;20056;-70
2021/05/06 03:35:38;;;;;;;9.63;6.38;;;5.30;90.10;;;;;;2088055;28;20045;-70
2021/05/06 03:41:47;;;;;;;9.00;6.03;;;5.30;90.10;;;;;;2088488;28;20032;-67
2021/05/06 03:42:58;;;;;;;7.55;5.82;;;5.30;90.00;;;;;;2088609;28;20471;-67
2021/05/06 03:44:21;;;;;;;6.95;5.55;;;5.30;90.10;;;;;;2088596;28;20017;-68
2021/05/06 03:47:59;;;;;;;8.35;6.10;;;5.30;90.30;;;;;;2088780;28;20009;-68
2021/05/06 04:13:17;;;;;;;13.63;6.95;;;5.70;87.80;;;;;;2088441;28;20384;-69
2021/05/06 04:16:12;;;;;;;11.55;6.53;;;5.70;87.20;;;;;;2088425;28;20028;-69
2021/05/06 04:17:33;;;;;;;10.32;6.22;;;5.70;87.00;;;;;;2087491;28;20484;-68
2021/05/06 04:18:36;;;;;;;8.88;5.97;;;5.80;86.80;;;;;;2088124;28;20060;-68
2021/05/06 04:25:46;;;;;;;6.18;4.80;;;7.40;80.90;;;;;;2091517;28;20017;-68
2021/05/06 04:26:58;;;;;;;8.00;4.85;;;7.90;79.50;;;;;;2089939;28;20032;-68
2021/05/06 04:30:36;;;;;;;6.90;4.95;;;8.90;71.30;;;;;;2089321;28;20109;-69
2021/05/06 04:35:38;;;;;;;7.63;4.80;;;10.10;65.40;;;;;;2089781;28;20045;-68
2021/05/06 04:36:53;;;;;;;8.68;4.82;;;10.20;63.40;;;;;;2089568;28;20048;-67
2021/05/06 04:37:55;;;;;;;8.30;4.75;;;9.90;63.60;;;;;;2082134;28;20034;-67
2021/05/06 04:38:55;;;;;;;8.38;4.80;;;9.90;64.60;;;;;;2089207;28;20092;-69
2021/05/06 04:40:03;;;;;;;6.70;4.70;;;10.10;64.90;;;;;;2089238;28;20775;-69
2021/05/06 04:41:20;;;;;;;9.90;4.90;;;10.10;63.60;;;;;;2090144;28;20032;-68
2021/05/06 04:54:22;;;;;;;6.43;4.60;;;10.80;59.60;;;;;;2089715;28;20495;-69
2021/05/06 05:03:37;;;;;;;6.68;4.15;;;10.60;60.60;;;;;;2089727;28;20545;-68
2021/05/06 05:04:40;;;;;;;6.82;4.70;;;10.50;60.80;;;;;;2089776;28;20032;-69
2021/05/06 05:05:41;;;;;;;6.35;4.50;;;10.40;61.20;;;;;;2089630;28;20025;-68
2021/05/06 05:06:52;;;;;;;6.47;4.70;;;10.40;60.90;;;;;;2089274;28;20578;-68
2021/05/06 05:07:59;;;;;;;6.53;4.43;;;10.30;61.70;;;;;;2089596;28;20416;-68
2021/05/06 05:09:20;;;;;;;8.35;4.43;;;10.20;62.40;;;;;;2089655;28;20025;-69
2021/05/06 05:10:29;;;;;;;6.25;3.80;;;10.30;62.00;;;;;;2089574;28;20032;-70
2021/05/06 05:20:06;;;;;;;5.97;4.07;;;10.30;61.50;;;;;;2089693;28;20625;-69
2021/05/06 05:23:59;;;;;;;5.22;4.10;;;10.60;60.00;;;;;;2075040;28;20021;-69
2021/05/06 05:25:05;;;;;;;4.97;4.15;;;10.50;60.20;;;;;;2089784;28;20021;-69
2021/05/06 05:26:09;;;;;;;5.25;4.00;;;10.20;61.10;;;;;;2089659;28;20047;-68
2021/05/06 05:27:10;;;;;;;7.10;4.20;;;10.10;61.70;;;;;;2089474;28;20029;-69
2021/05/06 05:28:10;;;;;;;4.18;3.63;;;10.10;62.50;;;;;;2087978;28;20028;-69
2021/05/06 05:29:11;;;;;;;5.95;4.03;;;10.00;62.70;;;;;;2088943;28;20111;-69
2021/05/06 05:30:12;;;;;;;6.35;4.25;;;10.10;62.50;;;;;;2089160;28;20406;-69
2021/05/06 05:31:13;;;;;;;5.78;4.30;;;10.30;62.30;;;;;;2089829;28;20496;-69
2021/05/06 05:32:14;;;;;;;5.07;4.18;;;10.50;61.50;;;;;;2089860;28;20135;-69
2021/05/06 05:33:18;;;;;;;5.20;3.88;;;10.50;60.90;;;;;;2081082;28;20132;-69
2021/05/06 05:34:29;;;;;;;6.63;4.13;;;10.60;61.00;;;;;;2082154;28;20042;-69
2021/05/06 05:35:49;;;;;;;8.45;4.20;;;10.60;60.80;;;;;;2090147;28;20025;-69
2021/05/06 05:36:53;;;;;;;4.55;3.80;;;10.70;60.10;;;;;;2090233;28;20039;-69
2021/05/06 05:38:03;;;;;;;6.15;3.97;;;10.80;59.70;;;;;;2091466;28;20021;-69
2021/05/06 05:39:17;;;;;;;;;;;10.90;60.20;;;;;;2091370;28;20052;-69
2021/05/06 05:40:25;;;;;;;5.07;4.10;;;10.90;59.80;;;;;;2089769;28;19912;-69
2021/05/06 05:42:57;;;;;;;6.90;4.07;;;10.70;59.80;;;;;;2089604;28;20025;-69
2021/05/06 05:54:35;;;;;;;5.15;3.67;;;11.60;57.70;;;;;;2089385;28;20025;-70
2021/05/06 05:55:35;;;;;;;4.80;3.70;;;11.40;57.80;;;;;;2089227;28;20021;-67
2021/05/06 05:56:36;;;;;;;5.60;3.90;;;11.50;58.20;;;;;;2089292;28;20468;-68
2021/05/06 05:57:37;;;;;;;4.80;3.63;;;11.30;58.20;;;;;;2089559;28;20035;-69
2021/05/06 05:58:37;;;;;;;8.10;3.97;;;11.00;58.20;;;;;;2087564;28;20480;-69
2021/05/06 05:59:38;;;;;;;5.85;3.90;;;10.90;59.30;;;;;;2089400;28;20104;-69
2021/05/06 06:00:38;;;;;;;4.65;4.00;;;10.80;59.30;;;;;;2096193;28;20061;-69
2021/05/06 06:01:39;;;;;;;5.97;4.03;;;10.60;60.90;;;;;;2090655;28;20075;-69
2021/05/06 06:02:40;;;;;;;6.13;4.10;;;10.50;61.40;;;;;;2089455;28;20025;-69
2021/05/06 06:03:40;;;;;;;6.30;4.00;;;10.40;61.90;;;;;;2088692;28;20083;-69
2021/05/06 06:04:41;;;;;;;5.20;4.25;;;10.10;62.40;;;;;;2088797;28;20103;-69
2021/05/06 06:05:41;;;;;;;6.13;4.10;;;10.00;63.60;;;;;;2089401;28;20036;-69
2021/05/06 06:06:42;;;;;;;5.53;4.30;;;9.90;64.00;;;;;;2089157;28;20115;-69
2021/05/06 06:07:43;;;;;;;5.72;4.43;;;9.80;64.70;;;;;;2089367;28;20027;-69
2021/05/06 06:08:43;;;;;;;5.82;4.18;;;9.80;64.80;;;;;;2089443;28;20504;-69
2021/05/06 06:09:44;;;;;;;7.68;4.38;;;9.80;65.70;;;;;;2089751;28;20059;-69
2021/05/06 06:10:45;;;;;;;5.80;4.15;;;9.90;66.70;;;;;;2088884;28;20091;-69
2021/05/06 06:11:46;;;;;;;5.72;4.35;;;9.90;66.30;;;;;;2088845;28;20029;-69
2021/05/06 06:12:46;;;;;;;7.30;4.25;;;9.90;64.60;;;;;;2089458;28;20051;-70
2021/05/06 06:13:50;;;;;;;6.53;3.95;;;9.90;64.70;;;;;;2089236;28;20021;-70
2021/05/06 06:15:09;;;;;;;5.50;4.10;;;10.00;65.30;;;;;;2089514;28;20081;-70
2021/05/06 06:16:12;;;;;;;8.85;4.40;;;10.00;65.30;;;;;;2089396;28;20021;-69
2021/05/06 06:17:13;;;;;;;5.68;4.10;;;10.10;65.30;;;;;;2089350;28;20017;-69
2021/05/06 06:18:23;;;;;;;7.60;4.07;;;10.00;64.60;;;;;;2089293;28;20032;-69
2021/05/06 06:19:30;;;;;;;;;;;9.90;64.20;;;;;;2093812;28;20395;-69
2021/05/06 06:20:34;;;;;;;5.68;4.07;;;9.80;63.90;;;;;;2091812;28;19935;-69
2021/05/06 06:22:39;;;;;;;5.75;3.92;;;9.70;65.50;;;;;;2089145;28;20071;-69
2021/05/06 06:23:39;;;;;;;6.53;4.00;;;9.70;64.90;;;;;;2088974;28;20025;-69
2021/05/06 06:24:40;;;;;;;5.78;4.00;;;9.60;64.90;;;;;;2089118;28;20472;-69
2021/05/06 06:25:41;;;;;;;7.07;4.15;;;9.60;65.40;;;;;;2089241;28;20052;-69
2021/05/06 06:26:42;;;;;;;5.35;4.15;;;9.60;65.40;;;;;;2089570;28;20037;-69
2021/05/06 06:27:43;;;;;;;5.22;4.00;;;9.60;65.20;;;;;;2089972;28;20835;-68
2021/05/06 06:28:47;;;;;;;7.72;4.30;;;9.60;64.90;;;;;;2089445;28;20025;-69
2021/05/06 06:29:48;;;;;;;5.40;4.20;;;9.60;65.20;;;;;;2089036;28;20040;-69
2021/05/06 06:30:48;;;;;;;6.18;3.83;;;9.60;65.30;;;;;;2089121;28;20114;-68
2021/05/06 06:31:50;;;;;;;6.97;4.43;;;9.70;65.80;;;;;;2089010;28;20474;-70
2021/05/06 06:32:52;;;;;;;7.07;4.47;;;9.70;65.50;;;;;;2081127;28;20037;-69
2021/05/06 06:33:53;;;;;;;7.57;4.22;;;9.80;65.90;;;;;;2088407;28;20515;-69
2021/05/06 06:34:54;;;;;;;5.90;4.40;;;9.90;65.10;;;;;;2088284;28;20029;-68
2021/05/06 06:35:54;;;;;;;7.82;5.57;;;9.90;64.70;;;;;;2088854;28;20131;-69
2021/05/06 06:36:55;;;;;;;5.40;4.15;;;9.90;64.30;;;;;;2088637;28;20104;-70
2021/05/06 06:37:56;;;;;;;5.30;3.95;;;9.90;64.10;;;;;;2088913;28;20029;-69
2021/05/06 06:38:57;;;;;;;10.63;4.03;;;9.90;64.40;;;;;;2089104;28;20024;-69
2021/05/06 06:39:57;;;;;;;4.80;4.00;;;9.90;65.20;;;;;;2088996;28;20043;-68
2021/05/06 06:40:59;;;;;;;5.75;4.13;;;10.00;65.80;;;;;;2088452;28;20036;-69
2021/05/06 06:42:00;;;;;;;5.50;4.25;;;10.10;66.10;;;;;;2088195;28;20437;-69
2021/05/06 06:43:01;;;;;;;5.75;3.85;;;10.10;64.70;;;;;;2088970;28;20028;-69
2021/05/06 06:44:02;;;;;;;5.18;3.85;;;10.00;63.90;;;;;;2088801;28;20495;-69
2021/05/06 06:45:03;;;;;;;5.00;3.97;;;10.00;64.50;;;;;;2089111;28;20041;-68
2021/05/06 06:46:04;;;;;;;6.25;4.10;;;9.90;64.20;;;;;;2088950;28;20075;-70
2021/05/06 06:47:07;;;;;;;5.85;3.92;;;9.80;65.00;;;;;;2088193;28;20453;-69
2021/05/06 06:48:09;;;;;;;7.80;4.00;;;9.80;65.50;;;;;;2088868;28;20053;-69
2021/05/06 06:49:13;;;;;;;7.47;4.32;;;9.90;66.50;;;;;;2088840;28;20028;-69
2021/05/06 06:50:13;;;;;;;6.43;4.10;;;10.00;67.00;;;;;;2089153;28;20427;-70
2021/05/06 06:51:15;;;;;;;7.00;4.57;;;10.10;65.90;;;;;;2089013;28;20032;-69
2021/05/06 06:52:16;;;;;;;4.75;3.63;;;10.20;65.00;;;;;;2088842;28;20027;-69
2021/05/06 06:53:17;;;;;;;5.32;4.00;;;10.10;64.20;;;;;;2088757;28;20404;-69
2021/05/06 06:54:17;;;;;;;5.70;4.25;;;10.10;63.50;;;;;;2088915;28;20108;-69
2021/05/06 06:55:19;;;;;;;5.07;4.00;;;10.00;63.60;;;;;;2088622;28;20029;-70
2021/05/06 06:56:19;;;;;;;6.47;4.05;;;10.00;64.50;;;;;;2088210;28;20056;-70
2021/05/06 06:57:20;;;;;;;6.53;4.18;;;10.00;63.70;;;;;;2087925;28;20068;-70
2021/05/06 06:58:20;;;;;;;5.20;3.83;;;10.00;64.10;;;;;;2087003;28;20132;-70
2021/05/06 06:59:21;;;;;;;6.72;3.92;;;10.10;64.80;;;;;;2088165;28;20036;-70
2021/05/06 07:00:22;;;;;;;4.32;3.85;;;10.10;64.40;;;;;;2088560;28;20095;-70
2021/05/06 07:01:23;;;;;;;5.50;4.18;;;10.00;63.60;;;;;;2088078;28;20017;-70
2021/05/06 07:02:23;;;;;;;5.30;4.07;;;9.90;63.90;;;;;;2088246;28;20056;-70
2021/05/06 07:03:24;;;;;;;5.05;4.10;;;9.90;64.10;;;;;;2088621;28;20017;-70
2021/05/06 07:04:25;;;;;;;7.93;3.90;;;9.90;64.50;;;;;;2088753;28;20017;-70
2021/05/06 07:05:26;;;;;;;6.07;4.00;;;9.90;65.30;;;;;;2088770;28;20469;-70
2021/05/06 07:06:26;;;;;;;5.20;3.92;;;10.00;64.60;;;;;;2088849;28;20025;-70
2021/05/06 07:07:27;;;;;;;6.30;4.15;;;10.10;64.80;;;;;;2088620;28;20033;-70
2021/05/06 07:08:33;;;;;;;5.80;4.10;;;10.10;63.70;;;;;;2088814;28;20492;-68
2021/05/06 07:09:33;;;;;;;6.00;4.00;;;10.10;64.20;;;;;;2088925;28;20158;-69
2021/05/06 07:10:34;;;;;;;5.45;4.10;;;10.20;64.00;;;;;;2088805;28;20090;-69
2021/05/06 07:11:38;;;;;;;5.68;3.80;;;10.20;63.70;;;;;;2088612;28;20025;-68
2021/05/06 07:12:39;;;;;;;6.15;4.00;;;10.20;63.40;;;;;;2088175;28;20028;-68
2021/05/06 07:13:39;;;;;;;5.95;3.80;;;10.30;64.00;;;;;;2094968;28;20115;-69
2021/05/06 07:14:40;;;;;;;7.55;4.30;;;10.40;63.80;;;;;;2090112;28;20725;-69
2021/05/06 07:15:41;;;;;;;5.10;3.80;;;10.40;63.20;;;;;;2088618;28;20743;-68
2021/05/06 07:16:41;;;;;;;7.97;3.63;;;10.50;63.90;;;;;;2088572;28;20174;-70
2021/05/06 07:17:42;;;;;;;6.00;3.70;;;10.60;62.80;;;;;;2088213;28;20029;-68
2021/05/06 07:18:42;;;;;;;5.15;3.90;;;10.70;62.20;;;;;;2088099;28;20023;-68
2021/05/06 07:19:44;;;;;;;4.43;3.90;;;10.80;62.80;;;;;;2089292;28;20373;-69
2021/05/06 07:20:45;;;;;;;5.00;3.92;;;10.80;61.20;;;;;;2088737;28;20017;-68
2021/05/06 07:21:46;;;;;;;6.32;3.72;;;10.80;61.10;;;;;;2079713;28;20017;-68
2021/05/06 07:22:47;;;;;;;6.78;4.22;;;10.80;61.70;;;;;;2080024;28;20127;-68
2021/05/06 07:23:47;;;;;;;7.75;3.97;;;10.70;61.80;;;;;;2088439;28;20098;-68
2021/05/06 07:24:48;;;;;;;6.57;3.85;;;10.70;61.00;;;;;;2088629;28;20013;-68
2021/05/06 07:25:51;;;;;;;8.45;3.80;;;10.60;61.30;;;;;;2088236;28;20044;-68
2021/05/06 07:26:52;;;;;;;6.35;4.40;;;10.60;60.80;;;;;;2087793;28;20029;-68
2021/05/06 07:27:52;;;;;;;6.65;4.10;;;10.50;60.70;;;;;;2087155;28;20037;-68
2021/05/06 07:28:53;;;;;;;5.40;3.88;;;10.50;61.60;;;;;;2088697;28;20116;-68
2021/05/06 07:29:54;;;;;;;4.28;3.58;;;10.50;60.50;;;;;;2088739;28;20091;-68
2021/05/06 07:30:55;;;;;;;6.05;3.40;;;10.50;60.10;;;;;;2088596;28;20033;-69
2021/05/06 07:31:55;;;;;;;5.20;3.47;;;10.60;59.90;;;;;;2088921;28;20091;-68
2021/05/06 07:32:56;;;;;;;6.80;3.67;;;10.70;60.10;;;;;;2088679;28;20043;-68
2021/05/06 07:33:56;;;;;;;7.95;3.72;;;10.70;60.00;;;;;;2088840;28;20079;-68
2021/05/06 07:34:57;;;;;;;4.55;3.75;;;10.70;60.90;;;;;;2088850;28;20032;-69
2021/05/06 07:35:59;;;;;;;5.35;3.40;;;10.70;61.00;;;;;;2088586;28;20037;-68
2021/05/06 07:37:00;;;;;;;7.88;3.45;;;10.60;60.00;;;;;;2088504;28;20021;-68
2021/05/06 07:38:00;;;;;;;5.03;3.55;;;10.50;60.00;;;;;;2088728;28;20443;-69
2021/05/06 07:39:01;;;;;;;5.18;3.40;;;10.50;59.80;;;;;;2088856;28;20025;-69
2021/05/06 07:40:03;;;;;;;4.90;3.58;;;10.50;60.30;;;;;;2088810;28;20037;-71
2021/05/06 07:41:04;;;;;;;5.95;3.50;;;10.50;59.70;;;;;;2088160;28;20037;-69
2021/05/06 07:42:05;;;;;;;5.13;3.30;;;10.40;60.20;;;;;;2082009;28;20021;-69
2021/05/06 07:43:06;;;;;;;4.60;3.05;;;10.40;60.00;;;;;;2088020;28;20488;-69
2021/05/06 07:44:07;;;;;;;5.38;3.50;;;10.40;60.90;;;;;;2093888;28;20033;-70
2021/05/06 07:45:08;;;;;;;4.50;2.92;;;10.40;60.60;;;;;;2088643;28;20048;-70
2021/05/06 07:46:09;;;;;;;5.20;3.80;;;10.50;60.60;;;;;;2088300;28;20715;-70
2021/05/06 07:47:10;;;;;;;5.25;3.58;;;10.50;60.10;;;;;;2088479;28;20031;-71
2021/05/06 07:48:11;;;;;;;5.00;3.00;;;10.60;61.00;;;;;;2087956;28;20483;-68
2021/05/06 07:49:12;;;;;;;5.03;3.28;;;10.70;60.90;;;;;;2087900;28;20068;-67
2021/05/06 07:50:13;;;;;;;5.05;3.15;;;10.80;61.20;;;;;;2088702;28;20167;-66
2021/05/06 07:51:13;;;;;;;5.75;3.60;;;10.80;61.00;;;;;;2088649;28;20025;-67
2021/05/06 07:52:16;;;;;;;5.47;3.30;;;10.80;60.00;;;;;;2088844;28;20052;-66
2021/05/06 07:53:23;;;;;;;5.15;3.10;;;10.70;60.20;;;;;;2088613;28;20104;-66
2021/05/06 07:54:23;;;;;;;5.50;3.15;;;10.70;59.80;;;;;;2088560;28;20527;-67
2021/05/06 07:55:24;;;;;;;4.05;3.00;;;10.60;59.80;;;;;;2088532;28;20033;-69
2021/05/06 07:56:25;;;;;;;5.95;3.10;;;10.70;60.40;;;;;;2087931;28;20166;-69
2021/05/06 07:57:25;;;;;;;6.43;3.45;;;10.70;59.50;;;;;;2087696;28;20380;-68
2021/05/06 07:58:26;;;;;;;4.53;3.28;;;10.70;59.40;;;;;;2087902;28;20032;-70
2021/05/06 07:59:27;;;;;;;6.00;3.00;;;10.70;59.40;;;;;;2090343;28;20024;-69
2021/05/06 08:00:28;;;;;;;3.13;2.80;;;10.70;59.70;;;;;;2089634;28;20106;-69
2021/05/06 08:01:28;;;;;;;4.78;3.40;;;10.60;59.20;;;;;;2089521;28;20473;-68
2021/05/06 08:02:29;;;;;;;5.10;3.10;;;10.60;60.00;;;;;;2095568;28;20055;-69
2021/05/06 08:03:30;;;;;;;6.65;3.42;;;10.60;59.50;;;;;;2092256;28;20025;-70
2021/05/06 08:04:31;;;;;;;4.25;3.13;;;10.60;59.90;;;;;;2089666;28;20542;-68
2021/05/06 08:05:31;;;;;;;4.97;2.90;;;10.60;60.10;;;;;;2090206;28;20029;-69
2021/05/06 08:06:32;;;;;;;6.85;3.03;;;10.50;60.30;;;;;;2090124;28;20021;-66
2021/05/06 08:07:32;;;;;;;6.28;3.22;;;10.50;59.90;;;;;;2090100;28;20028;-69
2021/05/06 08:08:33;;;;;;;5.72;2.85;;;10.40;59.60;;;;;;2090058;28;20373;-69
2021/05/06 08:09:34;;;;;;;3.67;2.97;;;10.30;59.10;;;;;;2089508;28;20476;-69
2021/05/06 08:10:34;;;;;;;4.75;3.00;;;10.30;60.00;;;;;;2089472;28;20064;-68
2021/05/06 08:11:35;;;;;;;4.20;3.08;;;10.30;60.70;;;;;;2089427;28;20025;-69
2021/05/06 08:12:36;;;;;;;4.47;2.80;;;10.30;61.90;;;;;;2089532;28;20017;-69
2021/05/06 08:13:36;;;;;;;4.63;2.90;;;10.30;61.70;;;;;;2089956;28;20487;-67
2021/05/06 08:14:37;;;;;;;4.15;3.00;;;10.30;62.30;;;;;;2089967;28;20013;-71
2021/05/06 08:15:38;;;;;;;5.90;3.47;;;10.30;61.00;;;;;;2089274;28;20484;-69
2021/05/06 08:16:38;;;;;;;4.40;3.13;;;10.30;60.60;;;;;;2089091;28;20070;-70
2021/05/06 08:17:41;;;;;;;5.25;3.15;;;10.30;60.50;;;;;;2090029;28;20021;-71
2021/05/06 08:18:41;;;;;;;6.47;3.17;;;10.30;60.20;;;;;;2090207;28;20022;-71
2021/05/06 08:19:42;;;;;;;4.47;3.00;;;10.30;60.60;;;;;;2090349;28;20680;-70
2021/05/06 08:20:43;;;;;;;4.78;2.97;;;10.40;60.90;;;;;;2090416;28;20105;-69
2021/05/06 08:21:46;;;;;;;4.85;2.63;;;10.40;59.90;;;;;;2090309;28;20032;-71
2021/05/06 08:22:47;;;;;;;5.35;2.90;;;10.40;60.20;;;;;;2090260;28;20404;-71
2021/05/06 08:23:47;;;;;;;4.57;2.83;;;10.50;59.80;;;;;;2090044;28;20024;-71
2021/05/06 08:24:48;;;;;;;7.35;3.00;;;10.50;60.00;;;;;;2090880;28;20025;-71
2021/05/06 08:25:49;;;;;;;4.25;2.70;;;10.60;59.80;;;;;;2090943;28;20040;-69
2021/05/06 08:26:49;;;;;;;5.32;3.22;;;10.70;59.70;;;;;;2089720;28;20035;-68
2021/05/06 08:27:50;;;;;;;7.18;3.20;;;10.80;59.50;;;;;;2088140;28;20039;-67
2021/05/06 08:28:52;;;;;;;2.97;2.60;;;10.80;58.80;;;;;;2090072;28;20059;-70
2021/05/06 08:29:53;;;;;;;7.05;2.90;;;10.90;58.10;;;;;;2089416;28;20063;-69